createdAt,value
2023-03-03T00:01:47.415Z,74.68
2023-03-03T00:05:48.118Z,75.95
2023-03-03T00:09:49.412Z,76.53
2023-03-03T00:13:56.361Z,76.53
2023-03-03T00:17:58.465Z,77.18
2023-03-03T00:22:01.734Z,76.77
2023-03-03T00:26:02.688Z,77.64
2023-03-03T00:30:20.365Z,77.39
2023-03-03T00:34:30.813Z,77.67
2023-03-03T00:38:31.934Z,77.65
2023-03-03T00:42:33.886Z,77.66
2023-03-03T00:46:40.977Z,77.35
2023-03-03T00:50:47.377Z,77.37
2023-03-03T00:54:50.575Z,76.73
2023-03-03T00:58:51.090Z,76.95
2023-03-03T01:02:56.824Z,76.74
2023-03-03T01:06:57.431Z,77.05
2023-03-03T01:11:01.958Z,76.92
2023-03-03T01:15:04.121Z,76.63
2023-03-03T01:19:09.820Z,77.32
2023-03-03T01:23:11.044Z,77.44
2023-03-03T01:27:11.768Z,77.68
2023-03-03T01:31:15.379Z,77.43
2023-03-03T01:35:18.940Z,77.71
2023-03-03T01:39:19.302Z,78.04
2023-03-03T01:43:19.966Z,78.08
2023-03-03T01:47:25.393Z,78.41
2023-03-03T01:51:34.178Z,78.61
2023-03-03T01:55:42.336Z,78.00
2023-03-03T01:59:50.507Z,77.76
2023-03-03T02:03:51.647Z,78.08
2023-03-03T02:07:56.099Z,78.65
2023-03-03T02:12:03.049Z,78.62
2023-03-03T02:16:03.702Z,78.43
2023-03-03T02:20:14.798Z,78.54
2023-03-03T02:24:29.208Z,79.36
2023-03-03T02:28:37.161Z,79.52
2023-03-03T02:32:40.418Z,80.27
2023-03-03T02:36:42.693Z,79.87
2023-03-03T02:40:55.372Z,80.27
2023-03-03T02:44:58.777Z,81.01
2023-03-03T02:48:59.376Z,80.91
2023-03-03T02:52:59.814Z,80.71
2023-03-03T02:57:00.702Z,80.57
2023-03-03T03:01:04.069Z,81.21
2023-03-03T03:05:05.190Z,81.15
2023-03-03T03:09:06.847Z,81.28
2023-03-03T03:13:07.663Z,81.62
2023-03-03T03:17:11.860Z,82.32
2023-03-03T03:21:14.649Z,83.17
2023-03-03T03:25:16.777Z,83.47
2023-03-03T03:29:17.940Z,84.27
2023-03-03T03:33:21.812Z,84.21
2023-03-03T03:37:23.337Z,83.89
2023-03-03T03:41:24.154Z,84.21
2023-03-03T03:45:28.063Z,83.54
2023-03-03T03:49:31.528Z,82.63
2023-03-03T03:53:32.628Z,81.74
2023-03-03T03:57:33.687Z,80.96
2023-03-03T04:01:34.280Z,79.87
2023-03-03T04:05:37.786Z,79.62
2023-03-03T04:09:39.576Z,80.01
2023-03-03T04:13:40.732Z,80.16
2023-03-03T04:17:44.266Z,80.36
2023-03-03T04:21:48.335Z,81.06
2023-03-03T04:25:50.450Z,81.19
2023-03-03T04:29:52.508Z,81.56
2023-03-03T04:33:57.280Z,81.52
2023-03-03T04:38:00.913Z,81.81
2023-03-03T04:42:01.536Z,81.71
2023-03-03T04:46:03.361Z,82.60
2023-03-03T04:50:05.036Z,82.63
2023-03-03T04:54:09.893Z,83.27
2023-03-03T04:58:12.759Z,83.29
2023-03-03T05:02:14.835Z,82.99
2023-03-03T05:06:16.914Z,83.25
2023-03-03T05:10:21.075Z,83.76
2023-03-03T05:14:21.706Z,84.66
2023-03-03T05:18:23.264Z,84.02
2023-03-03T05:22:23.774Z,84.00
2023-03-03T05:26:27.369Z,84.25
2023-03-03T05:30:28.609Z,84.46
2023-03-03T05:34:29.341Z,85.35
2023-03-03T05:38:30.079Z,85.21
2023-03-03T05:42:33.607Z,85.55
2023-03-03T05:46:35.599Z,85.61
2023-03-03T05:50:36.643Z,85.34
2023-03-03T05:54:37.676Z,85.05
2023-03-03T05:58:42.481Z,85.32
2023-03-03T06:02:46.290Z,86.46
2023-03-03T06:06:46.890Z,86.09
2023-03-03T06:10:47.556Z,85.33
2023-03-03T06:14:51.905Z,84.55
2023-03-03T06:18:52.713Z,84.85
2023-03-03T06:22:53.266Z,87.64
2023-03-03T06:26:56.340Z,87.98
2023-03-03T06:31:00.844Z,87.11
2023-03-03T06:35:01.524Z,85.25
2023-03-03T06:39:02.384Z,84.72
2023-03-03T06:43:03.453Z,84.86
2023-03-03T06:47:06.825Z,83.54
2023-03-03T06:51:24.700Z,83.80
2023-03-03T06:55:27.381Z,83.34
2023-03-03T06:59:30.838Z,82.78
2023-03-03T07:03:38.301Z,82.24
2023-03-03T07:07:40.341Z,81.43
2023-03-03T07:11:42.049Z,79.93
2023-03-03T07:15:42.647Z,78.07
2023-03-03T07:19:48.292Z,76.61
2023-03-03T07:23:51.594Z,75.59
2023-03-03T07:27:51.974Z,73.67
2023-03-03T07:31:53.469Z,72.23
2023-03-03T07:35:59.858Z,70.40
2023-03-03T07:40:02.132Z,68.30
2023-03-03T07:44:10.360Z,67.38
2023-03-03T07:48:28.521Z,67.49
2023-03-03T07:52:56.988Z,67.24
2023-03-03T07:57:00.949Z,66.52
2023-03-03T08:01:42.878Z,66.10
2023-03-03T08:05:47.184Z,65.03
2023-03-03T08:09:54.556Z,64.55
2023-03-03T08:13:58.726Z,64.33
2023-03-03T08:18:00.148Z,64.31
2023-03-03T08:22:10.270Z,63.26
2023-03-03T08:26:15.480Z,62.68
2023-03-03T08:30:17.265Z,62.79
2023-03-03T08:34:17.986Z,63.15
2023-03-03T08:38:22.366Z,61.60
2023-03-03T08:42:25.386Z,60.41
2023-03-03T08:46:27.025Z,58.47
2023-03-03T08:50:28.016Z,56.39
2023-03-03T08:54:28.596Z,55.92
2023-03-03T08:58:35.692Z,54.32
2023-03-03T09:02:38.455Z,52.88
2023-03-03T09:06:39.511Z,52.31
2023-03-03T09:10:44.057Z,52.70
2023-03-03T09:14:47.878Z,52.40
2023-03-03T09:18:48.349Z,51.48
2023-03-03T09:22:49.032Z,51.75
2023-03-03T09:26:53.233Z,51.64
2023-03-03T09:31:00.219Z,50.27
2023-03-03T09:35:01.039Z,50.03
2023-03-03T09:39:03.349Z,48.57
2023-03-03T09:43:12.619Z,46.94
2023-03-03T09:47:42.728Z,46.72
2023-03-03T09:52:03.320Z,45.66
2023-03-03T09:56:20.936Z,44.18
2023-03-03T10:00:44.885Z,44.33
2023-03-03T10:05:19.255Z,43.04
2023-03-03T10:10:01.962Z,43.59
2023-03-03T10:14:28.870Z,41.84
2023-03-03T10:18:42.659Z,40.84
2023-03-03T10:22:56.912Z,39.04
2023-03-03T10:27:23.326Z,38.88
2023-03-03T10:31:38.572Z,38.01
2023-03-03T10:36:07.381Z,37.37
2023-03-03T10:40:28.784Z,37.21
2023-03-03T10:44:58.126Z,37.04
2023-03-03T10:49:25.227Z,36.32
2023-03-03T10:53:36.707Z,35.05
2023-03-03T10:57:52.500Z,33.38
2023-03-03T11:02:01.174Z,33.40
2023-03-03T11:06:05.744Z,32.56
2023-03-03T11:10:30.590Z,32.47
2023-03-03T11:14:47.779Z,32.33
2023-03-03T11:19:15.828Z,33.42
2023-03-03T11:23:47.484Z,30.22
2023-03-03T11:28:17.483Z,30.67
2023-03-03T11:32:37.004Z,29.86
2023-03-03T11:36:45.430Z,29.51
2023-03-03T11:40:54.229Z,30.44
2023-03-03T11:45:00.138Z,29.26
2023-03-03T11:49:13.024Z,29.66
2023-03-03T11:53:57.292Z,28.86
2023-03-03T11:58:10.323Z,28.78
2023-03-03T12:02:33.256Z,28.17
2023-03-03T12:07:09.766Z,27.47
2023-03-03T12:11:31.034Z,27.11
2023-03-03T12:15:44.939Z,25.82
2023-03-03T12:19:58.173Z,25.45
2023-03-03T12:24:34.186Z,26.38
2023-03-03T12:28:48.094Z,26.10
2023-03-03T12:33:09.305Z,24.95
2023-03-03T12:37:32.836Z,24.26
2023-03-03T12:41:46.717Z,24.25
2023-03-03T12:46:03.144Z,24.62
2023-03-03T12:50:39.668Z,23.94
2023-03-03T12:55:11.467Z,24.69
2023-03-03T12:59:28.205Z,25.39
2023-03-03T13:03:55.269Z,24.78
2023-03-03T13:08:21.193Z,24.38
2023-03-03T13:12:35.541Z,23.82
2023-03-03T13:16:47.492Z,23.87
2023-03-03T13:21:08.066Z,24.21
2023-03-03T13:25:27.945Z,24.51
2023-03-03T13:29:33.394Z,24.58
2023-03-03T13:33:40.467Z,25.02
2023-03-03T13:37:47.808Z,24.24
2023-03-03T13:41:59.714Z,24.40
2023-03-03T13:46:13.856Z,24.58
2023-03-03T13:50:27.887Z,24.48
2023-03-03T13:55:06.218Z,23.82
2023-03-03T13:59:24.405Z,23.71
2023-03-03T14:03:50.377Z,24.41
2023-03-03T14:08:01.066Z,24.56
2023-03-03T14:12:15.282Z,25.29
2023-03-03T14:16:33.332Z,24.81
2023-03-03T14:20:46.700Z,24.63
2023-03-03T14:25:17.404Z,25.31
2023-03-03T14:29:32.537Z,24.52
2023-03-03T14:33:35.282Z,23.83
2023-03-03T14:37:47.758Z,24.43
2023-03-03T14:41:52.804Z,23.95
2023-03-03T14:45:53.938Z,24.09
2023-03-03T14:50:03.763Z,24.00
2023-03-03T14:54:04.694Z,24.27
2023-03-03T14:58:27.962Z,24.43
2023-03-03T15:02:46.354Z,25.01
2023-03-03T15:06:50.395Z,24.74
2023-03-03T15:10:52.547Z,24.41
2023-03-03T15:15:05.846Z,24.06
2023-03-03T15:19:47.505Z,24.23
2023-03-03T15:24:05.046Z,25.33
2023-03-03T15:28:25.482Z,26.35
2023-03-03T15:32:37.077Z,27.80
2023-03-03T15:36:48.312Z,28.18
2023-03-03T15:40:57.682Z,28.52
2023-03-03T15:45:10.836Z,28.48
2023-03-03T15:49:38.448Z,29.72
2023-03-03T15:54:11.599Z,30.32
2023-03-03T15:58:48.122Z,30.69
2023-03-03T16:02:58.940Z,31.89
2023-03-03T16:07:12.280Z,32.20
2023-03-03T16:11:24.301Z,32.58
2023-03-03T16:15:44.717Z,33.38
2023-03-03T16:19:56.490Z,33.79
2023-03-03T16:24:10.228Z,34.22
2023-03-03T16:28:19.932Z,34.85
2023-03-03T16:32:36.543Z,35.42
2023-03-03T16:36:56.222Z,36.48
2023-03-03T16:41:03.792Z,37.62
2023-03-03T16:45:22.955Z,39.19
2023-03-03T16:49:35.712Z,40.47
2023-03-03T16:54:09.587Z,41.86
2023-03-03T16:58:33.165Z,42.64
2023-03-03T17:03:13.841Z,43.42
2023-03-03T17:07:33.448Z,43.18
2023-03-03T17:11:58.197Z,43.81
2023-03-03T17:16:16.317Z,43.21
2023-03-03T17:20:33.952Z,43.81
2023-03-03T17:24:48.497Z,44.37
2023-03-03T17:29:12.634Z,45.38
2023-03-03T17:33:49.930Z,46.13
2023-03-03T17:38:02.053Z,47.06
2023-03-03T17:42:19.140Z,47.48
2023-03-03T17:46:28.917Z,47.38
2023-03-03T17:51:14.269Z,49.08
2023-03-03T17:55:42.867Z,48.99
2023-03-03T18:00:06.577Z,47.52
2023-03-03T18:04:42.649Z,47.74
2023-03-03T18:09:13.799Z,47.71
2023-03-03T18:13:37.044Z,46.62
2023-03-03T18:18:06.186Z,46.36
2023-03-03T18:22:14.545Z,47.14
2023-03-03T18:26:41.888Z,47.78
2023-03-03T18:31:01.113Z,48.19
2023-03-03T18:35:28.098Z,48.55
2023-03-03T18:39:46.517Z,49.35
2023-03-03T18:44:04.691Z,50.23
2023-03-03T18:48:14.899Z,50.45
2023-03-03T18:52:24.936Z,50.63
2023-03-03T18:56:48.447Z,52.02
2023-03-03T19:00:55.985Z,51.89
2023-03-03T19:05:07.739Z,52.40
2023-03-03T19:09:10.527Z,52.98
2023-03-03T19:13:57.321Z,53.74
2023-03-03T19:18:03.383Z,54.46
2023-03-03T19:22:27.419Z,55.74
2023-03-03T19:27:07.406Z,55.96
2023-03-03T19:31:19.013Z,56.50
2023-03-03T19:35:36.205Z,56.85
2023-03-03T19:39:52.420Z,57.91
2023-03-03T19:44:15.852Z,58.01
2023-03-03T19:48:28.879Z,58.72
2023-03-03T19:52:43.076Z,59.02
2023-03-03T19:56:51.570Z,59.69
2023-03-03T20:01:01.789Z,60.86
2023-03-03T20:05:23.340Z,60.46
2023-03-03T20:09:39.114Z,61.62
2023-03-03T20:13:57.346Z,61.68
2023-03-03T20:18:46.837Z,63.50
2023-03-03T20:22:59.809Z,63.32
2023-03-03T20:27:09.717Z,64.20
2023-03-03T20:31:22.500Z,64.51
2023-03-03T20:35:40.193Z,65.56
2023-03-03T20:40:01.365Z,66.68
2023-03-03T20:44:20.469Z,66.70
2023-03-03T20:48:51.358Z,67.00
2023-03-03T20:53:09.519Z,67.11
2023-03-03T20:57:21.431Z,67.26
2023-03-03T21:01:39.320Z,67.56
2023-03-03T21:06:01.239Z,68.02
2023-03-03T21:10:16.700Z,68.44
2023-03-03T21:14:24.187Z,69.41
2023-03-03T21:18:29.878Z,70.21
2023-03-03T21:22:30.519Z,70.34
2023-03-03T21:26:57.301Z,71.29
2023-03-03T21:31:17.755Z,71.19
2023-03-03T21:35:24.816Z,71.33
2023-03-03T21:39:32.613Z,72.18
2023-03-03T21:43:37.429Z,72.00
2023-03-03T21:47:39.436Z,72.33
2023-03-03T21:51:42.654Z,72.34
2023-03-03T21:55:48.873Z,72.69
2023-03-03T21:59:49.583Z,73.13
2023-03-03T22:03:50.795Z,73.67
2023-03-03T22:07:54.161Z,74.45
2023-03-03T22:11:54.906Z,74.64
2023-03-03T22:15:56.565Z,75.41
2023-03-03T22:19:56.934Z,75.62
2023-03-03T22:24:00.861Z,76.48
2023-03-03T22:28:02.158Z,76.58
2023-03-03T22:32:03.059Z,76.95
2023-03-03T22:36:04.090Z,77.09
2023-03-03T22:40:08.468Z,77.23
2023-03-03T22:44:09.826Z,77.39
2023-03-03T22:48:10.750Z,77.96
2023-03-03T22:52:12.182Z,77.89
2023-03-03T22:56:15.127Z,77.71
2023-03-03T23:00:19.384Z,78.00
2023-03-03T23:04:20.078Z,78.09
2023-03-03T23:08:21.854Z,77.89
2023-03-03T23:12:25.176Z,78.67
2023-03-03T23:16:25.628Z,78.81
2023-03-03T23:20:30.840Z,79.49
2023-03-03T23:24:33.223Z,79.10
2023-03-03T23:28:36.646Z,78.71
2023-03-03T23:32:38.202Z,78.91
2023-03-03T23:36:38.771Z,79.25
2023-03-03T23:40:39.129Z,79.00
2023-03-03T23:44:43.557Z,79.36
2023-03-03T23:48:44.317Z,78.63
2023-03-03T23:52:44.871Z,78.68
2023-03-03T23:56:45.355Z,78.46
